Terminal Aerodrome Forecast
Issued by NWS

Home | Current Version | Previous Version | Text Only | Print | Product List | Glossary On
Versions: 1 2 3 4 5 6 7 8 9 10 11 12 13 14 15 16
180
FTUS45 KRIW 231720
TAFCPR
TAF
KCPR 231720Z 2318/2418 07018G28KT 1/2SM SN BLSN VV010
     FM240200 07015KT 3SM -SN OVC010
     FM240700 09012KT 5SM -SN OVC012
     FM241300 09009KT P6SM VCSH SCT012 BKN020=

USA.gov is the U.S. government's official web portal to all federal, state and local government web resources and services.